createdAt,value
2018-10-11T00:01:34.465Z,18.22
2018-10-11T00:04:27.320Z,18.22
2018-10-11T00:06:57.305Z,18.30
2018-10-11T00:09:27.337Z,18.21
2018-10-11T00:11:57.329Z,18.27
2018-10-11T00:14:27.427Z,18.27
2018-10-11T00:16:57.319Z,18.25
2018-10-11T00:19:27.365Z,18.28
2018-10-11T00:21:57.847Z,18.26
2018-10-11T00:24:27.402Z,18.26
2018-10-11T00:26:57.329Z,18.35
2018-10-11T00:29:27.370Z,18.28
2018-10-11T00:31:57.325Z,18.25
2018-10-11T00:34:27.318Z,18.19
2018-10-11T00:36:57.318Z,18.18
2018-10-11T00:39:27.332Z,18.14
2018-10-11T00:41:57.318Z,18.11
2018-10-11T00:44:27.328Z,18.03
2018-10-11T00:46:57.292Z,18.03
2018-10-11T00:49:27.398Z,17.97
2018-10-11T00:51:57.330Z,17.96
2018-10-11T00:54:27.314Z,17.93
2018-10-11T00:56:57.310Z,17.88
2018-10-11T00:59:27.338Z,17.79
2018-10-11T01:01:57.324Z,17.75
2018-10-11T01:04:27.333Z,17.81
2018-10-11T01:06:57.305Z,17.73
2018-10-11T01:09:27.347Z,17.73
2018-10-11T01:11:57.315Z,17.73
2018-10-11T01:14:27.309Z,17.75
2018-10-11T01:16:57.320Z,17.82
2018-10-11T01:19:27.364Z,17.79
2018-10-11T01:21:57.362Z,17.75
2018-10-11T01:24:27.327Z,17.73
2018-10-11T01:26:57.386Z,17.64
2018-10-11T01:29:27.365Z,17.62
2018-10-11T01:31:57.322Z,17.57
2018-10-11T01:34:27.337Z,17.59
2018-10-11T01:36:57.317Z,17.55
2018-10-11T01:39:27.794Z,17.50
2018-10-11T01:41:57.415Z,17.50
2018-10-11T01:44:27.419Z,17.49
2018-10-11T01:46:58.316Z,17.40
2018-10-11T01:49:28.426Z,17.32
2018-10-11T01:51:58.314Z,17.35
2018-10-11T01:54:28.314Z,17.34
2018-10-11T01:56:58.320Z,17.41
2018-10-11T01:59:28.321Z,17.47
2018-10-11T02:01:58.322Z,17.46
2018-10-11T02:04:28.402Z,17.50
2018-10-11T02:06:58.315Z,17.49
2018-10-11T02:09:28.389Z,17.56
2018-10-11T02:11:58.313Z,17.58
2018-10-11T02:14:28.353Z,17.56
2018-10-11T02:16:58.313Z,17.46
2018-10-11T02:19:28.305Z,17.49
2018-10-11T02:21:58.312Z,17.53
2018-10-11T02:24:30.205Z,17.49
2018-10-11T02:27:01.329Z,17.64
2018-10-11T02:29:31.364Z,17.58
2018-10-11T02:32:01.387Z,17.42
2018-10-11T02:34:31.320Z,17.40
2018-10-11T02:37:01.333Z,17.43
2018-10-11T02:39:31.326Z,17.44
2018-10-11T02:42:01.350Z,17.47
2018-10-11T02:44:31.323Z,17.56
2018-10-11T02:47:01.313Z,17.55
2018-10-11T02:49:31.442Z,17.41
2018-10-11T02:52:01.342Z,17.43
2018-10-11T02:54:31.340Z,17.47
2018-10-11T02:57:04.324Z,17.36
2018-10-11T02:59:37.176Z,17.24
2018-10-11T03:02:11.311Z,17.27
2018-10-11T03:04:41.503Z,17.32
2018-10-11T03:07:12.296Z,17.37
2018-10-11T03:09:43.305Z,17.28
2018-10-11T03:12:13.539Z,17.37
2018-10-11T03:14:43.319Z,17.43
2018-10-11T03:17:13.309Z,17.35
2018-10-11T03:19:44.007Z,17.41
2018-10-11T03:22:14.238Z,17.36
2018-10-11T03:24:44.321Z,17.46
2018-10-11T03:27:14.327Z,17.39
2018-10-11T03:29:44.334Z,17.39
2018-10-11T03:32:14.386Z,17.31
2018-10-11T03:34:44.329Z,17.22
2018-10-11T03:37:14.380Z,17.23
2018-10-11T03:39:44.322Z,17.24
2018-10-11T03:42:14.418Z,17.10
2018-10-11T03:44:45.337Z,17.15
2018-10-11T03:49:21.320Z,17.12
2018-10-11T03:51:51.318Z,17.09
2018-10-11T03:54:21.319Z,17.07
2018-10-11T03:56:51.330Z,17.08
2018-10-11T03:59:21.378Z,17.05
2018-10-11T04:01:51.315Z,16.97
2018-10-11T04:04:21.317Z,17.00
2018-10-11T04:06:51.794Z,17.01
2018-10-11T04:09:21.502Z,16.95
2018-10-11T04:11:51.340Z,17.00
2018-10-11T04:14:21.286Z,16.97
2018-10-11T04:16:51.317Z,16.92
2018-10-11T04:19:21.316Z,16.95
2018-10-11T04:21:51.309Z,16.95
2018-10-11T04:24:21.294Z,16.86
2018-10-11T04:26:51.316Z,16.79
2018-10-11T04:29:21.344Z,16.83
2018-10-11T04:31:51.352Z,16.83
2018-10-11T04:34:25.270Z,16.84
2018-10-11T04:36:54.213Z,16.71
2018-10-11T04:39:24.317Z,16.74
2018-10-11T04:41:54.311Z,16.71
2018-10-11T04:44:24.352Z,16.86
2018-10-11T04:46:54.309Z,16.88
2018-10-11T04:49:24.310Z,16.88
2018-10-11T04:51:54.324Z,16.78
2018-10-11T04:54:24.324Z,16.72
2018-10-11T04:56:54.322Z,16.73
2018-10-11T04:59:24.319Z,16.75
2018-10-11T05:01:54.319Z,16.82
2018-10-11T05:04:24.290Z,16.93
2018-10-11T05:06:54.345Z,17.00
2018-10-11T05:09:24.356Z,16.94
2018-10-11T05:11:56.339Z,16.77
2018-10-11T05:14:26.393Z,16.77
2018-10-11T05:16:57.392Z,16.85
2018-10-11T05:19:31.460Z,16.74
2018-10-11T05:22:01.421Z,16.68
2018-10-11T05:24:31.322Z,16.68
2018-10-11T05:27:01.318Z,16.38
2018-10-11T05:29:31.343Z,16.41
2018-10-11T05:32:01.777Z,16.44
2018-10-11T05:34:32.078Z,16.36
2018-10-11T05:37:02.311Z,16.22
2018-10-11T05:39:32.321Z,16.10
2018-10-11T05:42:02.409Z,16.11
2018-10-11T05:44:32.595Z,16.17
2018-10-11T05:47:02.493Z,16.14
2018-10-11T05:49:32.419Z,16.07
2018-10-11T05:52:02.501Z,16.14
2018-10-11T05:54:32.368Z,16.26
2018-10-11T05:57:02.332Z,16.34
2018-10-11T05:59:32.317Z,16.38
2018-10-11T06:02:02.313Z,16.47
2018-10-11T06:04:32.313Z,16.56
2018-10-11T06:07:02.405Z,16.66
2018-10-11T06:09:34.022Z,16.76
2018-10-11T06:12:04.249Z,16.79
2018-10-11T06:14:34.574Z,16.83
2018-10-11T06:17:04.442Z,16.89
2018-10-11T06:19:34.393Z,16.92
2018-10-11T06:22:04.339Z,16.97
2018-10-11T06:24:34.317Z,17.07
2018-10-11T06:27:04.342Z,17.30
2018-10-11T06:29:34.396Z,17.37
2018-10-11T06:32:05.395Z,17.43
2018-10-11T06:34:35.325Z,17.56
2018-10-11T06:37:05.429Z,17.68
2018-10-11T06:39:35.323Z,17.74
2018-10-11T06:42:05.364Z,17.72
2018-10-11T06:44:35.384Z,17.85
2018-10-11T06:47:05.478Z,17.92
2018-10-11T06:49:36.948Z,17.92
2018-10-11T06:52:07.193Z,18.13
2018-10-11T06:54:37.297Z,18.16
2018-10-11T06:57:06.302Z,18.28
2018-10-11T06:59:36.313Z,18.36
2018-10-11T07:02:06.431Z,18.62
2018-10-11T07:04:37.332Z,18.72
2018-10-11T07:07:07.567Z,18.84
2018-10-11T07:09:37.352Z,19.01
2018-10-11T07:12:07.330Z,19.23
2018-10-11T07:14:38.322Z,19.16
2018-10-11T07:17:08.326Z,19.19
2018-10-11T07:19:38.317Z,19.21
2018-10-11T07:22:08.401Z,19.37
2018-10-11T07:24:38.328Z,19.56
2018-10-11T07:27:08.326Z,19.59
2018-10-11T07:29:38.437Z,19.88
2018-10-11T07:32:08.322Z,20.16
2018-10-11T07:34:38.360Z,19.99
2018-10-11T07:37:08.330Z,19.81
2018-10-11T07:39:38.330Z,20.33
2018-10-11T07:42:08.381Z,21.47
2018-10-11T07:44:38.628Z,21.61
2018-10-11T07:47:08.383Z,21.16
2018-10-11T07:49:38.798Z,21.08
2018-10-11T07:52:08.402Z,21.60
2018-10-11T07:54:38.330Z,22.14
2018-10-11T07:57:08.488Z,22.19
2018-10-11T07:59:38.328Z,22.14
2018-10-11T08:02:08.345Z,22.51
2018-10-11T08:04:38.333Z,22.50
2018-10-11T08:07:08.456Z,22.86
2018-10-11T08:09:38.328Z,23.45
2018-10-11T08:12:08.468Z,24.73
2018-10-11T08:14:38.332Z,26.17
2018-10-11T08:17:08.787Z,27.77
2018-10-11T08:19:38.394Z,29.05
2018-10-11T08:22:08.384Z,30.24
2018-10-11T08:24:38.434Z,31.35
2018-10-11T08:27:08.554Z,31.50
2018-10-11T08:29:38.418Z,32.39
2018-10-11T08:32:08.589Z,32.51
2018-10-11T08:34:39.323Z,33.31
2018-10-11T08:37:09.368Z,33.69
2018-10-11T08:39:39.393Z,34.23
2018-10-11T08:42:09.431Z,32.86
2018-10-11T08:44:40.342Z,33.31
2018-10-11T08:47:10.338Z,33.11
2018-10-11T08:49:40.460Z,33.60
2018-10-11T08:52:10.330Z,33.39
2018-10-11T08:54:45.521Z,33.30
2018-10-11T08:57:15.425Z,32.66
2018-10-11T08:59:45.498Z,32.35
2018-10-11T09:02:15.333Z,32.80
2018-10-11T09:04:45.594Z,32.68
2018-10-11T09:07:15.337Z,32.57
2018-10-11T09:09:53.437Z,31.72
2018-10-11T09:12:16.334Z,31.12
2018-10-11T09:14:46.335Z,30.71
2018-10-11T09:17:16.357Z,30.84
2018-10-11T09:19:46.324Z,31.08
2018-10-11T09:22:16.322Z,30.83
2018-10-11T09:24:46.334Z,30.62
2018-10-11T09:27:16.325Z,30.27
2018-10-11T09:29:46.328Z,29.05
2018-10-11T09:32:16.333Z,28.70
2018-10-11T09:34:46.296Z,28.29
2018-10-11T09:37:16.322Z,28.32
2018-10-11T09:39:46.326Z,28.49
2018-10-11T09:42:17.025Z,28.61
2018-10-11T09:44:47.189Z,28.64
2018-10-11T09:47:17.291Z,28.83
2018-10-11T09:49:47.337Z,28.71
2018-10-11T09:52:17.354Z,28.48
2018-10-11T09:54:47.370Z,27.82
2018-10-11T09:57:19.289Z,27.68
2018-10-11T09:59:49.294Z,27.72
2018-10-11T10:02:19.337Z,27.85
2018-10-11T10:04:51.333Z,28.00
2018-10-11T10:07:21.338Z,27.86
2018-10-11T10:09:51.370Z,27.85
2018-10-11T10:12:22.018Z,28.27
2018-10-11T10:14:52.249Z,28.58
2018-10-11T10:17:23.456Z,29.03
2018-10-11T10:19:53.331Z,29.27
2018-10-11T10:22:23.339Z,29.32
2018-10-11T10:24:53.333Z,29.02
2018-10-11T10:27:23.452Z,28.88
2018-10-11T10:29:53.457Z,28.86
2018-10-11T10:32:23.365Z,28.87
2018-10-11T10:34:53.334Z,28.89
2018-10-11T10:37:23.350Z,29.44
2018-10-11T10:39:54.355Z,29.81
2018-10-11T10:42:24.334Z,29.43
2018-10-11T10:44:54.332Z,29.71
2018-10-11T10:47:24.461Z,30.19
2018-10-11T10:49:54.301Z,30.81
2018-10-11T10:52:24.327Z,30.67
2018-10-11T10:54:54.335Z,31.15
2018-10-11T10:57:24.334Z,31.97
2018-10-11T10:59:54.326Z,32.96
2018-10-11T11:02:24.332Z,33.77
2018-10-11T11:04:54.327Z,34.58
2018-10-11T11:07:24.445Z,34.84
2018-10-11T11:09:54.318Z,35.73
2018-10-11T11:12:24.325Z,36.77
2018-10-11T11:14:53.983Z,36.65
2018-10-11T11:17:24.191Z,37.49
2018-10-11T11:19:52.928Z,37.74
2018-10-11T11:22:22.489Z,38.06
2018-10-11T11:24:52.356Z,38.36
2018-10-11T11:27:22.069Z,38.72
2018-10-11T11:29:51.536Z,39.55
2018-10-11T11:32:21.340Z,40.00
2018-10-11T11:34:51.193Z,40.15
2018-10-11T11:37:20.035Z,40.15
2018-10-11T11:39:50.004Z,40.08
2018-10-11T11:42:18.941Z,39.91
2018-10-11T11:44:48.362Z,40.38
2018-10-11T11:47:17.990Z,39.60
2018-10-11T11:49:47.404Z,39.84
2018-10-11T11:52:16.978Z,40.16
2018-10-11T11:54:47.012Z,39.70
2018-10-11T11:57:16.976Z,40.36
2018-10-11T11:59:46.411Z,40.07
2018-10-11T12:02:16.294Z,40.00
2018-10-11T12:04:46.328Z,40.09
2018-10-11T12:07:15.789Z,40.12
2018-10-11T12:09:45.357Z,40.57
2018-10-11T12:13:13.475Z,40.58
2018-10-11T12:15:44.263Z,40.94
2018-10-11T12:18:14.328Z,40.59
2018-10-11T12:20:44.015Z,41.08
2018-10-11T12:23:14.277Z,40.76
2018-10-11T12:25:43.566Z,41.22
2018-10-11T12:28:13.379Z,40.62
2018-10-11T12:30:43.315Z,40.26
2018-10-11T12:33:13.193Z,40.23
2018-10-11T12:35:41.923Z,40.50
2018-10-11T12:38:11.481Z,40.37
2018-10-11T12:40:41.387Z,40.22
2018-10-11T12:43:11.325Z,40.51
2018-10-11T12:45:41.667Z,39.93
2018-10-11T12:48:11.280Z,39.80
2018-10-11T12:50:40.565Z,39.95
2018-10-11T12:53:10.318Z,40.22
2018-10-11T12:55:40.206Z,40.48
2018-10-11T12:58:08.949Z,40.09
2018-10-11T13:00:38.386Z,39.42
2018-10-11T13:03:08.073Z,40.16
2018-10-11T13:05:37.409Z,39.78
2018-10-11T13:08:06.882Z,40.20
2018-10-11T13:10:36.326Z,40.60
2018-10-11T13:13:06.120Z,40.75
2018-10-11T13:15:35.386Z,39.98
2018-10-11T13:18:05.341Z,39.38
2018-10-11T13:20:35.027Z,40.19
2018-10-11T13:23:06.439Z,40.80
2018-10-11T13:25:35.192Z,40.09
2018-10-11T13:28:03.875Z,39.69
2018-10-11T13:30:33.512Z,40.29
2018-10-11T13:33:03.332Z,40.16
2018-10-11T13:35:33.094Z,38.21
2018-10-11T13:38:03.026Z,37.77
2018-10-11T13:40:32.660Z,37.45
2018-10-11T13:43:02.365Z,37.14
2018-10-11T13:45:32.323Z,36.40
2018-10-11T13:48:02.389Z,35.53
2018-10-11T13:50:32.370Z,33.97
2018-10-11T13:53:02.108Z,32.58
2018-10-11T13:55:31.999Z,32.05
2018-10-11T13:58:02.033Z,31.70
2018-10-11T14:00:32.073Z,31.11
2018-10-11T14:03:02.327Z,30.74
2018-10-11T14:05:32.330Z,30.37
2018-10-11T14:08:02.326Z,29.92
2018-10-11T14:10:32.329Z,29.22
2018-10-11T14:13:02.329Z,28.62
2018-10-11T14:15:32.326Z,28.25
2018-10-11T14:18:07.629Z,27.98
2018-10-11T14:20:32.325Z,27.72
2018-10-11T14:23:02.325Z,27.42
2018-10-11T14:25:32.329Z,27.24
2018-10-11T14:28:02.387Z,27.13
2018-10-11T14:30:32.327Z,27.22
2018-10-11T14:33:02.339Z,27.28
2018-10-11T14:35:33.329Z,27.22
2018-10-11T14:38:03.353Z,27.08
2018-10-11T14:40:33.333Z,27.05
2018-10-11T14:43:04.341Z,26.94
2018-10-11T14:45:35.324Z,27.07
2018-10-11T14:48:05.498Z,27.01
2018-10-11T14:50:35.339Z,27.04
2018-10-11T14:53:06.397Z,27.24
2018-10-11T14:55:36.402Z,27.36
2018-10-11T14:58:06.489Z,27.13
2018-10-11T15:00:36.337Z,27.25
2018-10-11T15:03:06.309Z,27.48
2018-10-11T15:05:36.395Z,27.73
2018-10-11T15:08:06.329Z,27.95
2018-10-11T15:10:36.281Z,27.95
2018-10-11T15:13:11.959Z,28.52
2018-10-11T15:15:41.681Z,29.36
2018-10-11T15:18:11.381Z,29.44
2018-10-11T15:20:41.236Z,28.54
2018-10-11T15:23:11.245Z,28.00
2018-10-11T15:25:41.014Z,27.50
2018-10-11T15:28:10.398Z,27.20
2018-10-11T15:30:40.259Z,26.85
2018-10-11T15:33:10.022Z,26.54
2018-10-11T15:35:39.391Z,26.45
2018-10-11T15:38:09.235Z,26.26
2018-10-11T15:40:39.179Z,26.12
2018-10-11T15:43:08.830Z,25.90
2018-10-11T15:45:38.300Z,25.79
2018-10-11T15:48:08.331Z,25.66
2018-10-11T15:50:38.175Z,25.60
2018-10-11T15:53:07.789Z,25.52
2018-10-11T15:55:37.320Z,25.41
2018-10-11T15:58:07.209Z,25.29
2018-10-11T16:00:35.599Z,25.14
2018-10-11T16:03:05.348Z,25.04
2018-10-11T16:05:35.332Z,24.92
2018-10-11T16:08:05.272Z,24.85
2018-10-11T16:10:35.201Z,24.70
2018-10-11T16:13:04.809Z,24.70
2018-10-11T16:15:34.306Z,24.62
2018-10-11T16:18:04.479Z,24.48
2018-10-11T16:20:34.415Z,24.41
2018-10-11T16:23:04.572Z,24.30
2018-10-11T16:25:34.576Z,24.14
2018-10-11T16:28:04.342Z,24.01
2018-10-11T16:30:34.912Z,23.86
2018-10-11T16:33:05.387Z,23.75
2018-10-11T16:36:21.633Z,23.64
2018-10-11T16:38:51.449Z,23.64
2018-10-11T16:41:21.880Z,23.58
2018-10-11T16:43:52.334Z,23.56
2018-10-11T16:46:22.889Z,23.55
2018-10-11T16:48:53.461Z,23.41
2018-10-11T16:51:24.241Z,23.35
2018-10-11T16:53:57.627Z,23.22
2018-10-11T16:56:27.302Z,23.13
2018-10-11T16:58:57.180Z,22.98
2018-10-11T17:01:27.077Z,22.97
2018-10-11T17:03:56.986Z,22.95
2018-10-11T17:06:25.953Z,22.95
2018-10-11T17:08:55.384Z,22.92
2018-10-11T17:11:25.176Z,22.96
2018-10-11T17:13:54.675Z,22.98
2018-10-11T17:16:24.316Z,22.97
2018-10-11T17:18:54.191Z,22.88
2018-10-11T17:21:23.794Z,22.84
2018-10-11T17:23:53.415Z,22.81
2018-10-11T17:26:23.193Z,22.75
2018-10-11T17:28:53.222Z,22.70
2018-10-11T17:31:22.798Z,22.68
2018-10-11T17:33:54.956Z,22.62
2018-10-11T17:36:24.446Z,22.63
2018-10-11T17:38:54.202Z,22.55
2018-10-11T17:41:26.220Z,22.58
2018-10-11T17:43:55.588Z,22.58
2018-10-11T17:46:27.931Z,22.54
2018-10-11T17:48:57.420Z,22.52
2018-10-11T17:51:27.194Z,22.45
2018-10-11T17:53:56.785Z,22.41
2018-10-11T17:56:26.339Z,22.25
2018-10-11T17:58:56.184Z,22.28
2018-10-11T18:01:25.889Z,22.19
2018-10-11T18:03:58.945Z,22.19
2018-10-11T18:06:29.317Z,22.18
2018-10-11T18:09:00.317Z,22.16
2018-10-11T18:11:30.184Z,22.12
2018-10-11T18:13:59.795Z,22.12
2018-10-11T18:16:30.728Z,22.08
2018-10-11T18:19:00.315Z,22.14
2018-10-11T18:21:30.426Z,22.12
2018-10-11T18:24:00.317Z,22.07
2018-10-11T18:26:30.174Z,21.97
2018-10-11T18:29:00.164Z,21.95
2018-10-11T18:31:30.197Z,21.89
2018-10-11T18:33:59.792Z,21.72
2018-10-11T18:36:29.434Z,21.56
2018-10-11T18:38:59.176Z,21.49
2018-10-11T18:41:28.782Z,21.42
2018-10-11T18:43:58.332Z,21.28
2018-10-11T18:46:27.960Z,21.10
2018-10-11T18:48:57.428Z,21.13
2018-10-11T18:51:27.195Z,20.99
2018-10-11T18:53:57.002Z,20.79
2018-10-11T18:56:26.409Z,20.71
2018-10-11T18:58:56.230Z,20.79
2018-10-11T19:01:26.001Z,20.86
2018-10-11T19:03:55.402Z,20.92
2018-10-11T19:06:25.186Z,21.01
2018-10-11T19:08:55.180Z,21.12
2018-10-11T19:11:25.283Z,21.06
2018-10-11T19:13:54.981Z,21.10
2018-10-11T19:16:24.398Z,21.10
2018-10-11T19:18:54.212Z,21.06
2018-10-11T19:22:53.477Z,21.01
2018-10-11T19:25:23.236Z,21.03
2018-10-11T19:27:52.787Z,21.06
2018-10-11T19:30:22.332Z,21.03
2018-10-11T19:32:52.170Z,21.01
2018-10-11T19:35:21.775Z,21.14
2018-10-11T19:37:51.441Z,21.13
2018-10-11T19:40:21.197Z,20.95
2018-10-11T19:42:50.777Z,21.04
2018-10-11T19:45:22.377Z,20.97
2018-10-11T19:47:52.186Z,21.07
2018-10-11T19:50:25.180Z,21.06
2018-10-11T19:52:55.167Z,21.00
2018-10-11T19:55:24.790Z,21.02
2018-10-11T19:58:03.799Z,20.95
2018-10-11T20:00:33.370Z,20.89
2018-10-11T20:03:03.192Z,20.94
2018-10-11T20:05:32.819Z,20.94
2018-10-11T20:08:02.439Z,20.87
2018-10-11T20:10:32.244Z,20.89
2018-10-11T20:13:01.683Z,20.97
2018-10-11T20:15:31.294Z,20.88
2018-10-11T20:18:03.902Z,20.93
2018-10-11T20:20:31.301Z,20.97
2018-10-11T20:23:01.220Z,20.90
2018-10-11T20:25:30.742Z,20.89
2018-10-11T20:28:00.314Z,20.85
2018-10-11T20:30:30.181Z,20.77
2018-10-11T20:32:59.980Z,20.71
2018-10-11T20:35:29.361Z,20.80
2018-10-11T20:37:59.187Z,20.76
2018-10-11T20:40:28.663Z,20.72
2018-10-11T20:42:58.315Z,20.78
2018-10-11T20:45:28.253Z,20.73
2018-10-11T20:47:58.316Z,20.58
2018-10-11T20:50:28.170Z,20.57
2018-10-11T20:52:57.817Z,20.52
2018-10-11T20:55:27.346Z,20.49
2018-10-11T20:57:57.201Z,20.51
2018-10-11T21:00:26.802Z,20.53
2018-10-11T21:02:56.325Z,20.49
2018-10-11T21:05:26.177Z,20.42
2018-10-11T21:07:55.669Z,20.34
2018-10-11T21:10:25.575Z,20.39
2018-10-11T21:12:55.293Z,20.32
2018-10-11T21:15:25.015Z,20.39
2018-10-11T21:17:54.373Z,20.41
2018-10-11T21:20:24.319Z,20.28
2018-10-11T21:22:54.241Z,20.33
2018-10-11T21:25:22.861Z,20.28
2018-10-11T21:27:52.855Z,20.32
2018-10-11T21:30:22.976Z,20.38
2018-10-11T21:32:52.403Z,20.38
2018-10-11T21:35:22.198Z,20.39
2018-10-11T21:37:52.311Z,20.25
2018-10-11T21:40:22.400Z,20.23
2018-10-11T21:42:52.365Z,20.21
2018-10-11T21:45:22.345Z,20.14
2018-10-11T21:47:52.280Z,20.13
2018-10-11T21:50:22.364Z,20.22
2018-10-11T21:52:52.334Z,20.24
2018-10-11T21:55:22.375Z,20.25
2018-10-11T21:57:53.335Z,20.21
2018-10-11T22:00:28.257Z,20.17
2018-10-11T22:02:57.727Z,20.24
2018-10-11T22:05:27.719Z,20.23
2018-10-11T22:07:57.299Z,20.22
2018-10-11T22:10:27.179Z,20.21
2018-10-11T22:12:56.986Z,20.18
2018-10-11T22:15:26.463Z,20.13
2018-10-11T22:17:56.243Z,20.00
2018-10-11T22:20:24.706Z,19.99
2018-10-11T22:22:54.317Z,19.98
2018-10-11T22:25:24.388Z,20.01
2018-10-11T22:27:54.534Z,19.98
2018-10-11T22:30:24.261Z,19.97
2018-10-11T22:32:53.993Z,19.97
2018-10-11T22:35:24.536Z,19.88
2018-10-11T22:37:59.988Z,19.82
2018-10-11T22:40:29.573Z,19.81
2018-10-11T22:42:59.251Z,19.73
2018-10-11T22:45:28.219Z,19.66
2018-10-11T22:47:58.243Z,19.53
2018-10-11T22:50:28.828Z,19.56
2018-10-11T22:52:58.633Z,19.55
2018-10-11T22:55:31.077Z,19.55
2018-10-11T22:58:01.359Z,19.59
2018-10-11T23:00:31.345Z,19.57
2018-10-11T23:03:01.191Z,19.53
2018-10-11T23:05:30.987Z,19.53
2018-10-11T23:08:00.375Z,19.51
2018-10-11T23:10:30.187Z,19.47
2018-10-11T23:12:59.667Z,19.53
2018-10-11T23:15:29.287Z,19.43
2018-10-11T23:17:59.178Z,19.42
2018-10-11T23:20:28.809Z,19.42
2018-10-11T23:22:58.289Z,19.34
2018-10-11T23:25:28.191Z,19.36
2018-10-11T23:27:57.994Z,19.38
2018-10-11T23:30:27.397Z,19.27
2018-10-11T23:32:57.188Z,19.29
2018-10-11T23:35:26.745Z,19.31
2018-10-11T23:37:56.309Z,19.32
2018-10-11T23:40:26.177Z,19.25
2018-10-11T23:42:55.673Z,19.26
2018-10-11T23:45:25.564Z,19.27
2018-10-11T23:47:55.272Z,19.23
2018-10-11T23:50:25.036Z,19.24
2018-10-11T23:52:54.658Z,19.23
2018-10-11T23:55:24.320Z,19.17
2018-10-11T23:57:54.211Z,19.18
